X  Chiuso Dati meteorologici dell'aviazione (METAR)     LIPX Verona-Villafranca Valerio Catullo Airport
Temperatura
25°C Temperatura
14°C Punto di rugiada
51% Umidità



Vento
8 KM/H
5 MPH
2 M/S
4 KTS



100°
Est
Condizioni attuali

Nuvole sparse Nuvole sparse
Pressione 1019.92 (hPa) - 30.12 (inHg)
Visibilità 6.2 (miglio) - 10 (km)
Aeroporto
Codice-Aeroporto LIPX

Posizione: Verona-Villafranca Valerio Catullo Airport
Distanza: 50 (km)

Metar:
LIPX 100620Z 10004KT 9999 SCT080 25/14 Q1020

Ore: 10-08-2022 08:20 CEST